JAD weather

Perth Jandakot Airport
Perth, Western Australia, Australia

Public forecast

Using degrees Celsius for public forecast. Weather courtesy of forecast.io.

METAR (pilot weather report)

Retrieved 2019/04/19 04:31 UTC (0 seconds ago):

YPJT 190431Z AUTO 24016G27KT 9999 // SCT054 16/06 Q1017 RF00.0/005.6

TAF (pilot weather forecast)

Forecast is more than 6 hours old.

Retrieved 2019/04/18 18:00 UTC (10 hours ago):

TAF YPJT 181639Z 1818/1912 22014G28KT 9999 -SHRA SCT015 BKN020 FM190200 23014G30KT 9999 -SHRA BKN035 TEMPO 1818/1821 VRB25G40KT 2000 +SHRA BKN008 INTER 1821/1912 23025G40KT 3000 SHRAGS BKN012